createdAt,value
2018-12-13T00:01:29.715Z,8.50
2018-12-13T00:04:10.095Z,10.70
2018-12-13T00:06:41.530Z,8.47
2018-12-13T00:09:10.686Z,11.37
2018-12-13T00:11:50.961Z,11.77
2018-12-13T00:14:31.207Z,8.80
2018-12-13T00:17:11.275Z,10.03
2018-12-13T00:19:51.511Z,8.70
2018-12-13T00:22:31.422Z,8.53
2018-12-13T00:25:01.990Z,9.67
2018-12-13T00:27:42.543Z,7.60
2018-12-13T00:30:23.275Z,8.33
2018-12-13T00:32:52.662Z,8.00
2018-12-13T00:35:23.693Z,9.23
2018-12-13T00:38:04.093Z,9.20
2018-12-13T00:40:44.071Z,10.07
2018-12-13T00:43:15.386Z,8.50
2018-12-13T00:45:46.415Z,9.40
2018-12-13T00:48:20.054Z,9.00
2018-12-13T00:51:00.616Z,10.67
2018-12-13T00:53:40.659Z,9.87
2018-12-13T00:56:14.026Z,8.80
2018-12-13T00:58:54.580Z,9.87
2018-12-13T01:01:35.502Z,8.87
2018-12-13T01:04:16.093Z,8.73
2018-12-13T01:06:56.555Z,9.53
2018-12-13T01:09:36.500Z,8.90
2018-12-13T01:12:16.642Z,8.47
2018-12-13T01:14:47.597Z,7.97
2018-12-13T01:17:28.119Z,8.23
2018-12-13T01:20:08.257Z,9.33
2018-12-13T01:22:41.543Z,9.20
2018-12-13T01:25:12.663Z,8.90
2018-12-13T01:27:41.661Z,7.93
2018-12-13T01:30:10.912Z,9.73
2018-12-13T01:32:40.018Z,9.27
2018-12-13T01:35:11.067Z,7.53
2018-12-13T01:37:51.319Z,10.57
2018-12-13T01:40:31.619Z,7.93
2018-12-13T01:43:05.660Z,7.40
2018-12-13T01:45:36.699Z,8.07
2018-12-13T01:48:17.239Z,8.23
2018-12-13T01:50:58.106Z,7.57
2018-12-13T01:53:32.174Z,9.13
2018-12-13T01:56:06.102Z,8.03
2018-12-13T01:58:46.633Z,8.03
2018-12-13T02:01:26.661Z,7.77
2018-12-13T02:04:07.523Z,8.20
2018-12-13T02:06:38.225Z,8.37
2018-12-13T02:14:23.583Z,8.67
2018-12-13T02:16:54.314Z,8.07
2018-12-13T02:19:28.238Z,8.60
2018-12-13T02:21:57.493Z,9.63
2018-12-13T02:24:37.820Z,9.50
2018-12-13T02:27:17.759Z,7.33
2018-12-13T02:29:57.787Z,8.20
2018-12-13T02:32:37.759Z,8.33
2018-12-13T02:35:09.182Z,7.93
2018-12-13T02:37:49.583Z,7.17
2018-12-13T02:40:20.162Z,6.97
2018-12-13T02:43:00.499Z,9.03
2018-12-13T02:45:31.131Z,7.33
2018-12-13T02:48:08.815Z,8.03
2018-12-13T02:50:42.998Z,8.73
2018-12-13T02:53:12.005Z,7.57
2018-12-13T02:55:45.927Z,9.03
2018-12-13T02:58:26.543Z,8.13
2018-12-13T03:01:06.675Z,10.07
2018-12-13T03:03:46.596Z,9.47
2018-12-13T03:06:18.072Z,9.93
2018-12-13T03:08:58.497Z,9.03
2018-12-13T03:11:38.468Z,8.50
2018-12-13T03:16:52.399Z,9.80
2018-12-13T03:19:25.988Z,12.40
2018-12-13T03:21:57.116Z,10.13
2018-12-13T03:24:28.070Z,8.33
2018-12-13T03:26:57.011Z,9.23
2018-12-13T03:29:37.308Z,9.47
2018-12-13T03:32:17.370Z,8.73
2018-12-13T03:34:49.196Z,9.07
2018-12-13T03:37:30.087Z,9.20
2018-12-13T03:40:10.251Z,8.60
2018-12-13T03:42:51.033Z,10.50
2018-12-13T03:45:25.080Z,11.83
2018-12-13T03:47:58.946Z,9.63
2018-12-13T03:50:39.467Z,8.40
2018-12-13T03:53:19.519Z,10.43
2018-12-13T03:56:00.458Z,8.83
2018-12-13T03:58:31.855Z,9.37
2018-12-13T04:01:12.479Z,10.47
2018-12-13T04:03:41.787Z,9.63
2018-12-13T04:06:12.924Z,9.97
2018-12-13T04:08:53.545Z,9.83
2018-12-13T04:11:26.939Z,12.57
2018-12-13T04:14:00.716Z,11.97
2018-12-13T04:16:34.810Z,10.60
2018-12-13T04:21:47.195Z,11.50
2018-12-13T04:24:27.141Z,12.63
2018-12-13T04:26:57.680Z,9.57
2018-12-13T04:29:38.256Z,11.50
2018-12-13T04:32:18.310Z,10.50
2018-12-13T04:34:48.827Z,10.53
2018-12-13T04:37:17.947Z,10.90
2018-12-13T04:39:46.704Z,10.03
2018-12-13T04:42:20.598Z,10.10
2018-12-13T04:44:54.441Z,11.63
2018-12-13T04:47:23.875Z,11.23
2018-12-13T04:49:52.766Z,10.63
2018-12-13T04:52:21.799Z,9.87
2018-12-13T04:55:02.215Z,11.07
2018-12-13T04:57:36.310Z,12.70
2018-12-13T05:00:07.163Z,11.43
2018-12-13T05:02:41.386Z,11.33
2018-12-13T05:05:15.283Z,10.00
2018-12-13T05:07:55.807Z,10.60
2018-12-13T05:10:36.715Z,13.00
2018-12-13T05:13:06.180Z,11.00
2018-12-13T05:15:46.599Z,10.77
2018-12-13T05:18:26.550Z,10.77
2018-12-13T05:21:06.603Z,11.67
2018-12-13T05:23:46.571Z,11.37
2018-12-13T05:26:17.258Z,12.67
2018-12-13T05:28:48.403Z,12.23
2018-12-13T05:31:17.303Z,12.73
2018-12-13T05:33:57.472Z,11.63
2018-12-13T05:36:30.714Z,12.50
2018-12-13T05:39:01.892Z,12.70
2018-12-13T05:41:42.714Z,12.53
2018-12-13T05:44:22.827Z,13.13
2018-12-13T05:46:53.457Z,11.53
2018-12-13T05:49:22.583Z,11.47
2018-12-13T05:51:53.540Z,9.63
2018-12-13T05:54:33.963Z,11.13
2018-12-13T05:57:04.684Z,11.67
2018-12-13T05:59:33.954Z,11.83
2018-12-13T06:02:14.291Z,10.97
2018-12-13T06:04:44.802Z,12.47
2018-12-13T06:07:13.931Z,12.07
2018-12-13T06:09:44.929Z,9.50
2018-12-13T06:12:13.861Z,11.60
2018-12-13T06:14:54.163Z,12.93
2018-12-13T06:17:28.400Z,12.03
2018-12-13T06:20:08.922Z,11.43
2018-12-13T06:25:12.463Z,11.70
2018-12-13T06:27:46.196Z,10.63
2018-12-13T06:30:26.771Z,11.20
2018-12-13T06:33:07.614Z,12.53
2018-12-13T06:35:38.111Z,9.20
2018-12-13T06:38:18.388Z,15.73
2018-12-13T06:40:48.909Z,12.37
2018-12-13T06:43:29.359Z,12.13
2018-12-13T06:46:00.807Z,12.67
2018-12-13T06:48:38.501Z,12.47
2018-12-13T06:51:20.154Z,12.97
2018-12-13T06:54:00.454Z,11.40
2018-12-13T06:56:31.031Z,11.77
2018-12-13T06:59:04.938Z,11.73
2018-12-13T07:01:45.452Z,11.60
2018-12-13T07:04:26.242Z,11.73
2018-12-13T07:07:06.280Z,13.30
2018-12-13T07:09:47.031Z,13.77
2018-12-13T07:12:26.969Z,12.57
2018-12-13T07:14:58.340Z,11.23
2018-12-13T07:17:29.287Z,13.80
2018-12-13T07:20:09.647Z,14.40
2018-12-13T07:22:49.619Z,14.33
2018-12-13T07:25:20.277Z,13.80
2018-12-13T07:28:00.923Z,12.87
2018-12-13T07:30:34.188Z,15.20
2018-12-13T07:33:14.791Z,13.67
2018-12-13T07:35:45.303Z,13.73
2018-12-13T07:38:19.208Z,13.43
2018-12-13T07:40:59.750Z,16.63
2018-12-13T07:43:39.735Z,13.33
2018-12-13T07:46:13.952Z,14.23
2018-12-13T07:48:43.276Z,15.27
2018-12-13T07:51:12.199Z,17.23
2018-12-13T07:53:46.858Z,15.00
2018-12-13T07:56:17.546Z,15.13
2018-12-13T07:58:57.980Z,14.87
2018-12-13T08:01:27.418Z,17.03
2018-12-13T08:04:07.691Z,13.90
2018-12-13T08:06:37.167Z,13.73
2018-12-13T08:09:17.526Z,14.67
2018-12-13T08:14:43.543Z,15.83
2018-12-13T08:17:17.507Z,14.70
2018-12-13T08:19:51.311Z,14.13
2018-12-13T08:22:25.187Z,14.57
2018-12-13T08:24:56.511Z,14.33
2018-12-13T08:27:25.620Z,16.97
2018-12-13T08:29:54.967Z,13.93
2018-12-13T08:32:35.366Z,13.93
2018-12-13T08:35:08.728Z,13.83
2018-12-13T08:37:37.752Z,13.10
2018-12-13T08:40:18.204Z,14.47
2018-12-13T08:42:59.076Z,14.90
2018-12-13T08:45:31.659Z,15.13
2018-12-13T08:48:12.329Z,16.57
2018-12-13T08:50:41.702Z,14.73
2018-12-13T08:53:22.382Z,15.17
2018-12-13T08:55:53.713Z,14.77
2018-12-13T08:58:34.015Z,13.93
2018-12-13T09:01:04.730Z,16.20
2018-12-13T09:06:31.272Z,14.67
2018-12-13T09:09:06.178Z,15.53
2018-12-13T09:11:35.593Z,14.50
2018-12-13T09:14:16.248Z,14.30
2018-12-13T09:16:47.668Z,15.00
2018-12-13T09:19:28.267Z,15.93
2018-12-13T09:22:05.540Z,12.43
2018-12-13T09:24:36.984Z,13.20
2018-12-13T09:27:10.841Z,14.23
2018-12-13T09:29:42.123Z,14.53
2018-12-13T09:32:19.839Z,11.03
2018-12-13T09:34:51.178Z,12.53
2018-12-13T09:37:31.657Z,13.13
2018-12-13T09:40:11.624Z,13.17
2018-12-13T09:42:51.651Z,12.93
2018-12-13T09:45:25.822Z,12.47
2018-12-13T09:48:06.547Z,12.13
2018-12-13T09:50:38.002Z,11.40
2018-12-13T09:53:06.887Z,12.73
2018-12-13T09:55:37.983Z,13.87
2018-12-13T09:58:18.243Z,14.93
2018-12-13T10:00:51.670Z,11.37
2018-12-13T10:03:20.792Z,11.30
2018-12-13T10:06:01.345Z,11.57
2018-12-13T10:08:46.387Z,10.50
2018-12-13T10:11:24.712Z,11.47
2018-12-13T10:14:05.426Z,11.33
2018-12-13T10:16:49.538Z,10.37
2018-12-13T10:19:19.048Z,12.00
2018-12-13T10:21:59.327Z,11.63
2018-12-13T10:24:39.403Z,9.63
2018-12-13T10:27:13.595Z,10.40
2018-12-13T10:29:54.180Z,10.30
2018-12-13T10:32:37.618Z,11.47
2018-12-13T10:37:43.866Z,8.47
2018-12-13T10:40:24.188Z,9.37
2018-12-13T10:43:04.114Z,10.40
2018-12-13T10:45:35.531Z,8.30
2018-12-13T10:48:18.094Z,9.23
2018-12-13T10:50:58.247Z,8.33
2018-12-13T10:53:38.159Z,10.93
2018-12-13T10:56:12.344Z,9.13
2018-12-13T10:58:52.875Z,9.37
2018-12-13T11:01:44.264Z,9.53
2018-12-13T11:04:17.518Z,9.03
2018-12-13T11:06:48.751Z,8.70
2018-12-13T11:09:22.419Z,9.00
2018-12-13T11:12:03.227Z,10.03
2018-12-13T11:14:32.616Z,9.43
2018-12-13T11:17:06.447Z,9.13
2018-12-13T11:19:46.945Z,7.97
2018-12-13T11:22:27.039Z,8.23
2018-12-13T11:24:58.783Z,9.13
2018-12-13T11:30:31.672Z,8.70
2018-12-13T11:33:05.289Z,7.87
2018-12-13T11:35:39.161Z,8.47
2018-12-13T11:38:19.691Z,8.23
2018-12-13T11:41:00.487Z,9.33
2018-12-13T11:43:40.623Z,8.97
2018-12-13T11:46:12.007Z,9.87
2018-12-13T11:48:52.491Z,9.07
2018-12-13T11:51:32.527Z,8.53
2018-12-13T11:54:12.559Z,9.13
2018-12-13T11:56:44.287Z,8.70
2018-12-13T11:59:24.599Z,9.13
2018-12-13T12:01:58.027Z,9.60
2018-12-13T12:04:32.047Z,8.87
2018-12-13T12:07:12.495Z,7.87
2018-12-13T12:09:52.484Z,10.07
2018-12-13T12:12:33.222Z,9.10
2018-12-13T12:15:07.211Z,7.80
2018-12-13T12:17:47.998Z,7.83
2018-12-13T12:20:21.431Z,10.63
2018-12-13T12:23:02.003Z,8.97
2018-12-13T12:28:34.762Z,9.97
2018-12-13T12:31:05.340Z,10.43
2018-12-13T12:33:46.002Z,9.87
2018-12-13T12:36:17.323Z,10.20
2018-12-13T12:38:51.240Z,9.37
2018-12-13T12:41:31.631Z,10.67
2018-12-13T12:44:11.636Z,7.53
2018-12-13T12:46:45.748Z,10.33
2018-12-13T12:49:14.859Z,9.70
2018-12-13T12:51:55.264Z,9.93
2018-12-13T12:54:36.038Z,10.63
2018-12-13T12:57:10.173Z,9.60
2018-12-13T12:59:39.403Z,9.43
2018-12-13T13:02:08.512Z,9.40
2018-12-13T13:04:37.728Z,9.60
2018-12-13T13:07:18.229Z,10.00
2018-12-13T13:09:58.385Z,12.03
2018-12-13T13:12:38.537Z,10.30
2018-12-13T13:15:12.623Z,10.13
2018-12-13T13:17:50.506Z,9.73
2018-12-13T13:20:31.320Z,9.17
2018-12-13T13:23:04.691Z,9.77
2018-12-13T13:25:35.766Z,9.80
2018-12-13T13:28:06.840Z,10.63
2018-12-13T13:30:40.415Z,12.43
2018-12-13T13:33:20.874Z,10.10
2018-12-13T13:35:52.288Z,10.57
2018-12-13T13:38:32.811Z,9.87
2018-12-13T13:41:12.840Z,13.33
2018-12-13T13:46:19.155Z,12.57
2018-12-13T13:49:06.147Z,10.53
2018-12-13T13:51:46.423Z,11.13
2018-12-13T13:54:17.627Z,9.27
2018-12-13T13:57:03.070Z,11.40
2018-12-13T13:59:49.070Z,9.90
2018-12-13T14:02:29.900Z,10.33
2018-12-13T14:05:01.347Z,9.53
2018-12-13T14:07:34.995Z,9.87
2018-12-13T14:10:13.843Z,10.97
2018-12-13T14:12:55.928Z,10.10
2018-12-13T14:15:27.104Z,9.10
2018-12-13T14:18:07.543Z,9.87
2018-12-13T14:20:48.452Z,11.13
2018-12-13T14:23:28.495Z,10.67
2018-12-13T14:25:59.867Z,11.47
2018-12-13T14:28:33.719Z,8.87
2018-12-13T14:31:20.643Z,8.67
2018-12-13T14:34:00.919Z,10.90
2018-12-13T14:36:31.678Z,10.73
2018-12-13T14:39:06.248Z,9.37
2018-12-13T14:41:37.583Z,10.03
2018-12-13T14:44:17.784Z,9.90
2018-12-13T14:49:33.739Z,9.87
2018-12-13T14:52:04.274Z,10.37
2018-12-13T14:54:35.300Z,11.10
2018-12-13T14:57:15.756Z,9.70
2018-12-13T14:59:55.991Z,10.97
2018-12-13T15:02:26.580Z,10.53
2018-12-13T15:04:57.823Z,10.43
2018-12-13T15:07:38.053Z,8.70
2018-12-13T15:10:18.181Z,12.60
2018-12-13T15:12:58.319Z,11.80
2018-12-13T15:15:31.755Z,10.33
2018-12-13T15:18:05.521Z,10.63
2018-12-13T15:20:45.979Z,10.23
2018-12-13T15:23:16.503Z,10.30
2018-12-13T15:25:47.539Z,10.43
2018-12-13T15:28:28.125Z,11.20
2018-12-13T15:31:08.186Z,10.30
2018-12-13T15:33:48.314Z,10.90
2018-12-13T15:36:19.758Z,12.73
2018-12-13T15:39:06.320Z,9.40
2018-12-13T15:41:47.208Z,11.50
2018-12-13T15:44:20.534Z,10.70
2018-12-13T15:47:01.287Z,11.20
2018-12-13T15:49:42.476Z,10.07
2018-12-13T15:52:16.579Z,11.23
2018-12-13T15:54:47.694Z,10.30
2018-12-13T15:57:28.339Z,10.27
2018-12-13T16:00:09.075Z,10.40
2018-12-13T16:02:54.142Z,11.60
2018-12-13T16:05:24.775Z,12.07
2018-12-13T16:07:55.847Z,10.50
2018-12-13T16:10:36.421Z,11.03
2018-12-13T16:13:16.451Z,14.07
2018-12-13T16:15:54.836Z,11.57
2018-12-13T16:18:35.959Z,10.47
2018-12-13T16:21:16.624Z,12.17
2018-12-13T16:23:46.030Z,12.03
2018-12-13T16:26:19.522Z,11.37
2018-12-13T16:28:48.537Z,10.97
2018-12-13T16:31:28.959Z,10.13
2018-12-13T16:34:08.912Z,10.57
2018-12-13T16:36:40.355Z,11.40
2018-12-13T16:39:11.379Z,9.93
2018-12-13T16:41:52.030Z,11.73
2018-12-13T16:44:37.919Z,12.63
2018-12-13T16:47:18.056Z,11.30
2018-12-13T16:49:48.659Z,11.07
2018-12-13T16:52:19.579Z,11.17
2018-12-13T16:54:50.775Z,10.80
2018-12-13T16:57:31.521Z,10.40
2018-12-13T17:03:04.454Z,11.53
2018-12-13T17:05:45.321Z,12.13
2018-12-13T17:08:30.527Z,9.93
2018-12-13T17:11:10.503Z,12.50
2018-12-13T17:13:50.547Z,11.20
2018-12-13T17:16:30.668Z,13.30
2018-12-13T17:19:10.706Z,11.87
2018-12-13T17:21:44.171Z,12.93
2018-12-13T17:24:24.993Z,11.10
2018-12-13T17:27:05.063Z,11.63
2018-12-13T17:29:45.060Z,12.43
2018-12-13T17:32:25.092Z,15.40
2018-12-13T17:34:55.710Z,11.97
2018-12-13T17:37:26.659Z,12.67
2018-12-13T17:40:07.248Z,12.40
2018-12-13T17:42:48.183Z,12.03
2018-12-13T17:45:18.723Z,10.90
2018-12-13T17:47:59.235Z,13.63
2018-12-13T17:50:34.615Z,9.63
2018-12-13T17:53:15.349Z,10.67
2018-12-13T17:55:49.543Z,10.83
2018-12-13T17:58:30.219Z,12.70
2018-12-13T18:01:10.950Z,13.03
2018-12-13T18:03:51.115Z,12.50
2018-12-13T18:06:21.683Z,10.77
2018-12-13T18:09:02.216Z,11.77
2018-12-13T18:11:43.047Z,11.30
2018-12-13T18:14:17.235Z,10.30
2018-12-13T18:16:51.061Z,10.43
2018-12-13T18:19:31.645Z,11.20
2018-12-13T18:22:11.667Z,11.00
2018-12-13T18:24:45.056Z,11.50
2018-12-13T18:27:16.130Z,12.97
2018-12-13T18:29:45.059Z,11.33
2018-12-13T18:32:18.702Z,13.43
2018-12-13T18:34:49.822Z,11.50
2018-12-13T18:37:30.371Z,11.87
2018-12-13T18:40:00.946Z,12.80
2018-12-13T18:42:41.327Z,13.10
2018-12-13T18:45:11.975Z,11.63
2018-12-13T18:47:42.904Z,11.43
2018-12-13T18:50:23.408Z,12.87
2018-12-13T18:53:03.448Z,12.93
2018-12-13T18:58:19.690Z,12.53
2018-12-13T19:01:00.920Z,14.27
2018-12-13T19:03:34.163Z,15.03
2018-12-13T19:06:08.059Z,12.63
2018-12-13T19:08:48.715Z,12.67
2018-12-13T19:11:20.165Z,11.53
2018-12-13T19:13:53.634Z,12.90
2018-12-13T19:16:24.879Z,13.40
2018-12-13T19:18:56.079Z,11.53
2018-12-13T19:21:24.982Z,12.60
2018-12-13T19:23:58.877Z,13.07
2018-12-13T19:26:29.928Z,15.13
2018-12-13T19:29:10.628Z,14.23
2018-12-13T19:31:51.617Z,13.50
2018-12-13T19:34:32.476Z,12.57
2018-12-13T19:37:12.475Z,13.67
2018-12-13T19:39:52.648Z,12.03
2018-12-13T19:45:16.724Z,14.87
2018-12-13T19:47:45.715Z,15.83
2018-12-13T19:50:26.169Z,14.23
2018-12-13T19:52:57.524Z,12.83
2018-12-13T19:55:38.171Z,14.00
2018-12-13T19:58:18.669Z,14.03
2018-12-13T20:00:49.801Z,14.23
2018-12-13T20:03:30.227Z,12.13
2018-12-13T20:06:00.814Z,13.30
2018-12-13T20:08:41.463Z,15.17
2018-12-13T20:11:16.834Z,12.60
2018-12-13T20:13:57.251Z,13.80
2018-12-13T20:16:31.012Z,12.50
2018-12-13T20:19:11.407Z,12.77
2018-12-13T20:21:52.214Z,12.07
2018-12-13T20:24:22.920Z,13.77
2018-12-13T20:27:03.576Z,14.73
2018-12-13T20:29:44.431Z,13.87
2018-12-13T20:32:19.055Z,12.43
2018-12-13T20:34:50.191Z,13.13
2018-12-13T20:37:23.701Z,14.73
2018-12-13T20:40:04.439Z,13.80
2018-12-13T20:42:45.319Z,13.83
2018-12-13T20:45:27.355Z,13.60
2018-12-13T20:48:00.645Z,13.50
2018-12-13T20:50:41.322Z,14.13
2018-12-13T20:53:21.345Z,12.83
2018-12-13T20:55:52.871Z,12.90
2018-12-13T20:58:26.589Z,18.93
2018-12-13T21:01:00.474Z,11.53
2018-12-13T21:03:41.074Z,12.60
2018-12-13T21:06:14.479Z,13.33
2018-12-13T21:08:55.017Z,12.80
2018-12-13T21:11:25.655Z,13.23
2018-12-13T21:13:54.655Z,14.00
2018-12-13T21:16:35.156Z,11.27
2018-12-13T21:19:16.033Z,13.23
2018-12-13T21:21:56.875Z,12.83
2018-12-13T21:24:36.943Z,11.50
2018-12-13T21:27:17.794Z,13.53
2018-12-13T21:29:51.299Z,12.43
2018-12-13T21:32:25.281Z,12.83
2018-12-13T21:34:59.290Z,13.77
2018-12-13T21:37:39.992Z,13.37
2018-12-13T21:40:19.939Z,12.53
2018-12-13T21:43:00.015Z,12.47
2018-12-13T21:45:30.567Z,12.30
2018-12-13T21:48:04.703Z,11.77
2018-12-13T21:50:45.390Z,11.90
2018-12-13T21:53:14.819Z,10.90
2018-12-13T21:55:45.879Z,13.47
2018-12-13T21:58:26.403Z,12.20
2018-12-13T22:00:57.054Z,14.07
2018-12-13T22:03:30.708Z,12.93
2018-12-13T22:06:04.600Z,12.30
2018-12-13T22:08:45.152Z,13.37
2018-12-13T22:11:25.243Z,12.43
2018-12-13T22:13:58.527Z,12.67
2018-12-13T22:16:38.995Z,13.93
2018-12-13T22:19:13.138Z,13.63
2018-12-13T22:21:47.152Z,11.03
2018-12-13T22:24:16.139Z,11.83
2018-12-13T22:26:50.040Z,13.43
2018-12-13T22:29:23.934Z,12.83
2018-12-13T22:32:05.411Z,12.57
2018-12-13T22:34:39.423Z,13.23
2018-12-13T22:37:20.130Z,12.60
2018-12-13T22:40:00.835Z,13.47
2018-12-13T22:42:32.307Z,14.03
2018-12-13T22:45:06.226Z,12.70
2018-12-13T22:47:46.867Z,11.47
2018-12-13T22:50:26.955Z,14.13
2018-12-13T22:53:12.043Z,12.63
2018-12-13T22:55:45.464Z,10.77
2018-12-13T22:58:26.400Z,13.03
2018-12-13T23:01:00.191Z,14.60
2018-12-13T23:03:40.752Z,13.03
2018-12-13T23:06:12.298Z,12.20
2018-12-13T23:08:52.747Z,13.63
2018-12-13T23:11:32.876Z,11.77
2018-12-13T23:14:13.776Z,12.23
2018-12-13T23:16:47.866Z,12.77
2018-12-13T23:19:28.187Z,13.70
2018-12-13T23:21:58.767Z,12.67
2018-12-13T23:24:39.110Z,14.47
2018-12-13T23:27:19.195Z,12.93
2018-12-13T23:29:59.331Z,10.93
2018-12-13T23:32:40.169Z,13.30
2018-12-13T23:35:10.797Z,14.47
2018-12-13T23:37:39.831Z,14.27
2018-12-13T23:40:20.259Z,12.70
2018-12-13T23:43:01.209Z,13.80
2018-12-13T23:45:31.723Z,12.13
2018-12-13T23:48:12.336Z,13.27
2018-12-13T23:50:45.603Z,14.00
2018-12-13T23:53:26.451Z,12.87
2018-12-13T23:55:57.780Z,13.80
2018-12-13T23:58:38.472Z,14.50
